createdAt,value
2018-06-19T00:00:52.742Z,21.50
2018-06-19T00:01:56.869Z,21.50
2018-06-19T00:03:01.329Z,21.50
2018-06-19T00:04:05.705Z,21.50
2018-06-19T00:05:09.903Z,21.50
2018-06-19T00:06:14.043Z,21.50
2018-06-19T00:07:18.149Z,21.50
2018-06-19T00:08:22.231Z,21.50
2018-06-19T00:10:30.514Z,21.40
2018-06-19T00:11:34.723Z,21.40
2018-06-19T00:12:38.771Z,21.40
2018-06-19T00:13:42.841Z,21.40
2018-06-19T00:14:46.951Z,21.40
2018-06-19T00:15:51.086Z,21.40
2018-06-19T00:16:56.089Z,21.40
2018-06-19T00:18:05.640Z,21.40
2018-06-19T00:19:10.044Z,21.40
2018-06-19T00:20:14.185Z,21.40
2018-06-19T00:21:36.692Z,21.40
2018-06-19T00:22:40.921Z,21.40
2018-06-19T00:23:45.015Z,21.40
2018-06-19T00:24:49.218Z,21.40
2018-06-19T00:25:53.342Z,21.40
2018-06-19T00:26:57.517Z,21.40
2018-06-19T00:28:01.782Z,21.30
2018-06-19T00:29:05.907Z,21.40
2018-06-19T00:30:09.997Z,21.30
2018-06-19T00:31:14.136Z,21.30
2018-06-19T00:32:18.289Z,21.30
2018-06-19T00:33:22.368Z,21.30
2018-06-19T00:34:26.474Z,21.30
2018-06-19T00:35:30.572Z,21.30
2018-06-19T00:36:34.644Z,21.30
2018-06-19T00:37:38.782Z,21.20
2018-06-19T00:38:42.869Z,21.20
2018-06-19T00:39:46.956Z,21.20
2018-06-19T00:40:51.117Z,21.20
2018-06-19T00:41:55.241Z,21.20
2018-06-19T00:42:59.378Z,21.10
2018-06-19T00:44:03.510Z,21.10
2018-06-19T00:45:07.763Z,21.10
2018-06-19T00:46:11.993Z,21.10
2018-06-19T00:47:16.115Z,21.10
2018-06-19T00:48:20.539Z,21.10
2018-06-19T00:49:24.629Z,21.10
2018-06-19T00:50:28.814Z,21.10
2018-06-19T00:51:32.957Z,21.10
2018-06-19T00:52:37.030Z,21.00
2018-06-19T00:53:41.136Z,21.00
2018-06-19T00:54:45.425Z,21.00
2018-06-19T00:55:49.562Z,21.00
2018-06-19T00:56:57.924Z,21.00
2018-06-19T00:58:02.041Z,21.00
2018-06-19T00:59:06.193Z,21.00
2018-06-19T01:00:10.231Z,21.00
2018-06-19T01:01:14.409Z,20.90
2018-06-19T01:02:18.588Z,20.90
2018-06-19T01:03:22.662Z,20.90
2018-06-19T01:04:26.726Z,20.90
2018-06-19T01:05:30.867Z,20.90
2018-06-19T01:06:35.026Z,20.90
2018-06-19T01:07:39.117Z,20.90
2018-06-19T01:08:43.189Z,20.80
2018-06-19T01:09:47.294Z,20.80
2018-06-19T01:10:51.370Z,20.80
2018-06-19T01:11:55.518Z,20.80
2018-06-19T01:12:59.674Z,20.80
2018-06-19T01:14:03.824Z,20.80
2018-06-19T01:15:08.000Z,20.80
2018-06-19T01:16:12.173Z,20.70
2018-06-19T01:17:16.411Z,20.70
2018-06-19T01:18:20.517Z,20.70
2018-06-19T01:19:24.687Z,20.70
2018-06-19T01:20:28.843Z,20.70
2018-06-19T01:21:32.930Z,20.70
2018-06-19T01:22:37.437Z,20.70
2018-06-19T01:23:42.431Z,20.70
2018-06-19T01:25:50.273Z,20.70
2018-06-19T01:26:54.473Z,20.60
2018-06-19T01:27:58.674Z,20.60
2018-06-19T01:29:08.740Z,20.60
2018-06-19T01:30:18.845Z,20.60
2018-06-19T01:31:29.248Z,20.60
2018-06-19T01:32:39.437Z,20.60
2018-06-19T01:33:50.258Z,20.50
2018-06-19T01:34:54.389Z,20.50
2018-06-19T01:35:58.557Z,20.50
2018-06-19T01:37:02.715Z,20.50
2018-06-19T01:38:06.848Z,20.50
2018-06-19T01:39:11.445Z,20.50
2018-06-19T01:40:15.587Z,20.50
2018-06-19T01:41:20.318Z,20.40
2018-06-19T01:42:24.509Z,20.40
2018-06-19T01:43:28.638Z,20.40
2018-06-19T01:44:32.761Z,20.40
2018-06-19T01:45:36.892Z,20.40
2018-06-19T01:46:41.036Z,20.40
2018-06-19T01:47:45.192Z,20.40
2018-06-19T01:48:49.394Z,20.40
2018-06-19T01:49:53.540Z,20.40
2018-06-19T01:50:57.688Z,20.40
2018-06-19T01:52:01.864Z,20.40
2018-06-19T01:53:06.011Z,20.30
2018-06-19T01:54:10.153Z,20.30
2018-06-19T01:55:14.315Z,20.30
2018-06-19T01:56:18.429Z,20.30
2018-06-19T01:57:22.567Z,20.30
2018-06-19T01:58:26.761Z,20.30
2018-06-19T01:59:30.848Z,20.30
2018-06-19T02:00:34.981Z,20.30
2018-06-19T02:01:39.105Z,20.30
2018-06-19T02:02:43.207Z,20.30
2018-06-19T02:03:47.269Z,20.30
2018-06-19T02:04:51.392Z,20.30
2018-06-19T02:05:55.471Z,20.30
2018-06-19T02:06:59.614Z,20.30
2018-06-19T02:08:03.708Z,20.30
2018-06-19T02:09:08.787Z,20.30
2018-06-19T02:10:12.947Z,20.30
2018-06-19T02:11:17.134Z,20.30
2018-06-19T02:12:21.275Z,20.30
2018-06-19T02:13:25.343Z,20.30
2018-06-19T02:14:29.544Z,20.30
2018-06-19T02:15:33.853Z,20.20
2018-06-19T02:16:37.997Z,20.20
2018-06-19T02:17:42.033Z,20.20
2018-06-19T02:18:46.120Z,20.20
2018-06-19T02:19:50.233Z,20.20
2018-06-19T02:20:54.757Z,20.20
2018-06-19T02:21:58.882Z,20.20
2018-06-19T02:23:02.945Z,20.20
2018-06-19T02:24:07.085Z,20.20
2018-06-19T02:25:11.157Z,20.20
2018-06-19T02:26:15.246Z,20.20
2018-06-19T02:27:19.329Z,20.20
2018-06-19T02:28:23.469Z,20.20
2018-06-19T02:29:27.570Z,20.20
2018-06-19T02:30:31.646Z,20.20
2018-06-19T02:31:35.762Z,20.20
2018-06-19T02:32:39.888Z,20.20
2018-06-19T02:33:44.016Z,20.20
2018-06-19T02:34:48.095Z,20.20
2018-06-19T02:35:52.257Z,20.20
2018-06-19T02:36:56.317Z,20.20
2018-06-19T02:38:00.416Z,20.20
2018-06-19T02:39:07.439Z,20.20
2018-06-19T02:40:11.561Z,20.20
2018-06-19T02:41:15.779Z,20.20
2018-06-19T02:42:19.921Z,20.20
2018-06-19T02:43:24.046Z,20.20
2018-06-19T02:44:28.115Z,20.20
2018-06-19T02:45:32.242Z,20.20
2018-06-19T02:46:36.539Z,20.20
2018-06-19T02:47:40.660Z,20.20
2018-06-19T02:48:44.807Z,20.20
2018-06-19T02:49:48.915Z,20.10
2018-06-19T02:51:56.777Z,20.10
2018-06-19T02:53:00.926Z,20.10
2018-06-19T02:54:05.341Z,20.10
2018-06-19T02:55:09.419Z,20.10
2018-06-19T02:56:13.555Z,20.00
2018-06-19T02:57:17.867Z,20.00
2018-06-19T02:58:21.991Z,20.00
2018-06-19T02:59:26.079Z,19.90
2018-06-19T03:00:30.474Z,19.90
2018-06-19T03:01:34.524Z,19.90
2018-06-19T03:02:41.278Z,19.90
2018-06-19T03:03:45.540Z,19.90
2018-06-19T03:04:49.971Z,19.90
2018-06-19T03:05:54.244Z,19.90
2018-06-19T03:06:58.343Z,19.90
2018-06-19T03:08:02.546Z,19.80
2018-06-19T03:09:08.508Z,19.80
2018-06-19T03:10:12.753Z,19.80
2018-06-19T03:11:16.857Z,19.80
2018-06-19T03:12:20.931Z,19.80
2018-06-19T03:13:25.005Z,19.80
2018-06-19T03:14:29.104Z,19.80
2018-06-19T03:15:33.291Z,19.80
2018-06-19T03:16:37.397Z,19.80
2018-06-19T03:17:41.638Z,19.90
2018-06-19T03:18:45.712Z,19.90
2018-06-19T03:19:49.831Z,19.90
2018-06-19T03:20:53.981Z,19.90
2018-06-19T03:21:58.057Z,19.90
2018-06-19T03:23:02.191Z,19.90
2018-06-19T03:24:06.335Z,19.90
2018-06-19T03:25:10.457Z,19.90
2018-06-19T03:26:14.607Z,19.90
2018-06-19T03:27:18.762Z,19.90
2018-06-19T03:28:22.838Z,19.90
2018-06-19T03:29:26.933Z,19.90
2018-06-19T03:30:31.043Z,19.90
2018-06-19T03:31:35.211Z,19.90
2018-06-19T03:32:39.317Z,19.90
2018-06-19T03:33:43.367Z,19.90
2018-06-19T03:34:47.511Z,19.90
2018-06-19T03:35:51.687Z,19.90
2018-06-19T03:36:55.846Z,20.00
2018-06-19T03:38:00.050Z,20.00
2018-06-19T03:39:06.524Z,20.00
2018-06-19T03:40:10.664Z,20.00
2018-06-19T03:41:14.753Z,20.00
2018-06-19T03:42:18.806Z,20.00
2018-06-19T03:43:22.952Z,20.00
2018-06-19T03:44:27.022Z,20.10
2018-06-19T03:45:31.142Z,20.10
2018-06-19T03:46:35.251Z,20.10
2018-06-19T03:47:39.363Z,20.10
2018-06-19T03:48:43.482Z,20.10
2018-06-19T03:49:47.635Z,20.10
2018-06-19T03:50:51.800Z,20.20
2018-06-19T03:51:56.006Z,20.20
2018-06-19T03:53:00.119Z,20.20
2018-06-19T03:54:04.228Z,20.20
2018-06-19T03:55:08.420Z,20.20
2018-06-19T03:56:12.571Z,20.20
2018-06-19T03:57:16.713Z,20.20
2018-06-19T03:58:20.852Z,20.20
2018-06-19T03:59:24.910Z,20.20
2018-06-19T04:00:28.998Z,20.20
2018-06-19T04:01:33.100Z,20.20
2018-06-19T04:02:37.215Z,20.20
2018-06-19T04:03:41.358Z,20.20
2018-06-19T04:04:45.616Z,20.20
2018-06-19T04:05:49.649Z,20.20
2018-06-19T04:06:53.746Z,20.20
2018-06-19T04:07:57.932Z,20.30
2018-06-19T04:09:04.747Z,20.30
2018-06-19T04:10:08.921Z,20.30
2018-06-19T04:11:13.080Z,20.30
2018-06-19T04:12:17.182Z,20.30
2018-06-19T04:13:21.295Z,20.30
2018-06-19T04:14:25.465Z,20.30
2018-06-19T04:15:29.561Z,20.30
2018-06-19T04:16:33.660Z,20.30
2018-06-19T04:17:44.389Z,20.30
2018-06-19T04:18:48.475Z,20.30
2018-06-19T04:19:52.900Z,20.30
2018-06-19T04:20:57.004Z,20.40
2018-06-19T04:22:01.105Z,20.40
2018-06-19T04:23:05.507Z,20.30
2018-06-19T04:24:09.595Z,20.30
2018-06-19T04:25:13.701Z,20.30
2018-06-19T04:26:17.933Z,20.30
2018-06-19T04:27:22.376Z,20.30
2018-06-19T04:28:26.651Z,20.30
2018-06-19T04:29:30.744Z,20.30
2018-06-19T04:30:34.883Z,20.30
2018-06-19T04:31:39.049Z,20.30
2018-06-19T04:32:43.189Z,20.30
2018-06-19T04:34:51.167Z,20.30
2018-06-19T04:35:55.522Z,20.30
2018-06-19T04:36:59.753Z,20.30
2018-06-19T04:38:03.860Z,20.30
2018-06-19T04:39:09.581Z,20.30
2018-06-19T04:40:13.747Z,20.30
2018-06-19T04:41:17.860Z,20.30
2018-06-19T04:42:21.936Z,20.30
2018-06-19T04:43:26.137Z,20.20
2018-06-19T04:44:30.243Z,20.30
2018-06-19T04:45:34.344Z,20.30
2018-06-19T04:46:38.668Z,20.30
2018-06-19T04:48:46.583Z,20.30
2018-06-19T04:50:54.521Z,20.30
2018-06-19T04:51:58.617Z,20.30
2018-06-19T04:53:02.807Z,20.30
2018-06-19T04:54:06.901Z,20.30
2018-06-19T04:55:10.985Z,20.40
2018-06-19T04:56:15.070Z,20.40
2018-06-19T04:57:19.145Z,20.40
2018-06-19T04:58:23.434Z,20.40
2018-06-19T04:59:27.549Z,20.40
2018-06-19T05:00:31.714Z,20.40
2018-06-19T05:01:35.839Z,20.40
2018-06-19T05:02:39.973Z,20.50
2018-06-19T05:03:44.020Z,20.50
2018-06-19T05:05:51.926Z,20.60
2018-06-19T05:06:56.111Z,20.60
2018-06-19T05:08:00.233Z,20.60
2018-06-19T05:09:06.842Z,20.60
2018-06-19T05:10:11.001Z,20.70
2018-06-19T05:12:18.769Z,20.70
2018-06-19T05:13:22.891Z,20.70
2018-06-19T05:14:27.076Z,20.70
2018-06-19T05:15:31.174Z,20.70
2018-06-19T05:16:35.297Z,20.70
2018-06-19T05:17:39.421Z,20.70
2018-06-19T05:18:43.549Z,20.70
2018-06-19T05:19:47.828Z,20.70
2018-06-19T05:20:51.951Z,20.80
2018-06-19T05:21:56.121Z,20.80
2018-06-19T05:24:04.326Z,20.80
2018-06-19T05:25:08.450Z,20.80
2018-06-19T05:26:12.612Z,20.80
2018-06-19T05:27:16.813Z,20.90
2018-06-19T05:28:20.926Z,20.90
2018-06-19T05:29:25.063Z,20.90
2018-06-19T05:30:29.253Z,20.90
2018-06-19T05:31:33.283Z,20.90
2018-06-19T05:32:37.549Z,20.90
2018-06-19T05:33:41.677Z,21.00
2018-06-19T05:34:45.804Z,21.00
2018-06-19T05:35:49.925Z,21.00
2018-06-19T05:36:53.989Z,21.00
2018-06-19T05:37:58.157Z,21.10
2018-06-19T05:39:02.357Z,21.10
2018-06-19T05:40:06.562Z,21.10
2018-06-19T05:41:10.685Z,21.10
2018-06-19T05:42:14.847Z,21.10
2018-06-19T05:43:18.890Z,21.20
2018-06-19T05:44:23.075Z,21.20
2018-06-19T05:45:27.176Z,21.20
2018-06-19T05:46:31.370Z,21.30
2018-06-19T05:47:35.559Z,21.30
2018-06-19T05:48:39.685Z,21.30
2018-06-19T05:49:43.834Z,21.30
2018-06-19T05:50:48.047Z,21.40
2018-06-19T05:51:52.281Z,21.40
2018-06-19T05:52:56.402Z,21.40
2018-06-19T05:54:00.805Z,21.40
2018-06-19T05:55:04.916Z,21.40
2018-06-19T05:56:09.026Z,21.40
2018-06-19T05:57:13.196Z,21.40
2018-06-19T05:58:17.300Z,21.40
2018-06-19T05:59:21.410Z,21.50
2018-06-19T06:00:25.478Z,21.50
2018-06-19T06:01:29.547Z,21.50
2018-06-19T06:02:33.800Z,21.50
2018-06-19T06:03:37.927Z,21.50
2018-06-19T06:04:42.156Z,21.60
2018-06-19T06:05:46.319Z,21.60
2018-06-19T06:06:50.403Z,21.60
2018-06-19T06:08:58.404Z,21.60
2018-06-19T06:10:02.495Z,21.70
2018-06-19T06:11:06.936Z,21.70
2018-06-19T06:12:11.049Z,21.70
2018-06-19T06:13:18.195Z,21.80
2018-06-19T06:14:22.303Z,21.80
2018-06-19T06:15:26.558Z,21.80
2018-06-19T06:16:30.688Z,21.80
2018-06-19T06:17:34.884Z,21.90
2018-06-19T06:18:39.020Z,21.90
2018-06-19T06:19:43.125Z,21.90
2018-06-19T06:20:47.274Z,22.00
2018-06-19T06:21:51.419Z,22.00
2018-06-19T06:22:56.435Z,22.00
2018-06-19T06:24:00.473Z,22.00
2018-06-19T06:25:04.549Z,22.00
2018-06-19T06:26:08.739Z,22.00
2018-06-19T06:27:12.942Z,22.10
2018-06-19T06:28:17.076Z,22.10
2018-06-19T06:29:21.268Z,22.10
2018-06-19T06:30:25.432Z,22.10
2018-06-19T06:31:29.512Z,22.10
2018-06-19T06:32:33.743Z,22.10
2018-06-19T06:33:37.843Z,22.10
2018-06-19T06:34:41.962Z,22.10
2018-06-19T06:35:46.234Z,22.10
2018-06-19T06:37:54.038Z,22.10
2018-06-19T06:38:58.393Z,22.10
2018-06-19T06:40:02.542Z,22.10
2018-06-19T06:41:06.633Z,22.10
2018-06-19T06:42:10.769Z,22.10
2018-06-19T06:43:14.925Z,22.10
2018-06-19T06:44:19.021Z,22.00
2018-06-19T06:45:23.101Z,22.10
2018-06-19T06:46:27.294Z,22.00
2018-06-19T06:47:31.436Z,22.00
2018-06-19T06:48:35.611Z,22.00
2018-06-19T06:49:39.674Z,22.00
2018-06-19T06:50:43.728Z,22.00
2018-06-19T06:51:47.914Z,22.00
2018-06-19T06:52:52.049Z,22.00
2018-06-19T06:53:56.199Z,22.00
2018-06-19T06:55:00.481Z,22.00
2018-06-19T06:56:05.095Z,22.00
2018-06-19T06:57:09.318Z,22.00
2018-06-19T06:58:14.044Z,22.10
2018-06-19T06:59:18.230Z,22.10
2018-06-19T07:00:22.371Z,22.10
2018-06-19T07:01:26.632Z,22.10
2018-06-19T07:02:30.731Z,22.10
2018-06-19T07:03:34.893Z,22.10
2018-06-19T07:04:39.068Z,22.10
2018-06-19T07:05:43.221Z,22.10
2018-06-19T07:06:47.495Z,22.20
2018-06-19T07:07:51.803Z,22.20
2018-06-19T07:08:55.945Z,22.20
2018-06-19T07:10:00.130Z,22.20
2018-06-19T07:11:04.181Z,22.20
2018-06-19T07:12:08.552Z,22.20
2018-06-19T07:13:12.687Z,22.30
2018-06-19T07:14:16.851Z,22.30
2018-06-19T07:15:21.017Z,22.30
2018-06-19T07:16:25.241Z,22.30
2018-06-19T07:17:29.428Z,22.40
2018-06-19T07:18:33.599Z,22.40
2018-06-19T07:19:37.914Z,22.50
2018-06-19T07:20:42.227Z,22.50
2018-06-19T07:21:46.855Z,22.60
2018-06-19T07:22:51.260Z,22.60
2018-06-19T07:23:56.170Z,22.70
2018-06-19T07:25:01.203Z,22.70
2018-06-19T07:26:05.790Z,22.80
2018-06-19T07:27:10.028Z,22.80
2018-06-19T07:28:14.426Z,22.90
2018-06-19T07:29:18.768Z,23.00
2018-06-19T07:30:22.913Z,23.00
2018-06-19T07:31:27.079Z,23.10
2018-06-19T07:32:31.660Z,23.20
2018-06-19T07:33:36.028Z,23.20
2018-06-19T07:35:43.930Z,23.30
2018-06-19T07:36:48.379Z,23.40
2018-06-19T07:37:52.817Z,23.50
2018-06-19T07:38:56.933Z,23.50
2018-06-19T07:40:01.059Z,23.50
2018-06-19T07:41:05.513Z,23.60
2018-06-19T07:42:09.679Z,23.60
2018-06-19T07:43:13.942Z,23.70
2018-06-19T07:44:18.125Z,23.70
2018-06-19T07:45:22.325Z,23.80
2018-06-19T07:46:26.481Z,23.80
2018-06-19T07:48:35.465Z,23.90
2018-06-19T07:49:39.646Z,23.90
2018-06-19T07:50:43.936Z,23.90
2018-06-19T07:51:48.322Z,23.90
2018-06-19T07:52:52.452Z,24.00
2018-06-19T07:53:56.608Z,24.00
2018-06-19T07:55:00.714Z,24.00
2018-06-19T07:56:05.111Z,24.00
2018-06-19T07:57:09.491Z,24.10
2018-06-19T07:58:13.646Z,24.10
2018-06-19T07:59:17.707Z,24.10
2018-06-19T08:00:22.377Z,24.10
2018-06-19T08:01:26.511Z,24.10
2018-06-19T08:02:30.653Z,24.10
2018-06-19T08:03:34.831Z,24.10
2018-06-19T08:04:38.934Z,24.20
2018-06-19T08:05:43.030Z,24.10
2018-06-19T08:06:47.441Z,24.20
2018-06-19T08:07:51.563Z,24.20
2018-06-19T08:08:55.950Z,24.30
2018-06-19T08:10:00.061Z,24.30
2018-06-19T08:11:04.210Z,24.30
2018-06-19T08:12:08.658Z,24.40
2018-06-19T08:13:12.806Z,24.40
2018-06-19T08:14:16.877Z,24.50
2018-06-19T08:15:21.023Z,24.50
2018-06-19T08:16:25.090Z,24.60
2018-06-19T08:17:29.197Z,24.60
2018-06-19T08:18:33.344Z,24.70
2018-06-19T08:19:37.465Z,24.70
2018-06-19T08:20:41.520Z,24.80
2018-06-19T08:21:45.679Z,24.80
2018-06-19T08:22:49.842Z,24.80
2018-06-19T08:23:53.952Z,24.90
2018-06-19T08:24:58.043Z,24.90
2018-06-19T08:26:02.208Z,24.90
2018-06-19T08:27:06.865Z,25.00
2018-06-19T08:28:10.950Z,25.00
2018-06-19T08:29:15.094Z,25.00
2018-06-19T08:30:19.278Z,25.00
2018-06-19T08:31:23.682Z,25.00
2018-06-19T08:32:27.906Z,25.10
2018-06-19T08:33:32.027Z,25.10
2018-06-19T08:35:39.824Z,25.10
2018-06-19T08:36:43.934Z,25.20
2018-06-19T08:37:48.071Z,25.20
2018-06-19T08:38:52.489Z,25.20
2018-06-19T08:39:56.605Z,25.20
2018-06-19T08:41:00.754Z,25.30
2018-06-19T08:42:05.152Z,25.30
2018-06-19T08:43:09.394Z,25.30
2018-06-19T08:44:13.691Z,25.30
2018-06-19T08:45:17.848Z,25.40
2018-06-19T08:46:22.166Z,25.40
2018-06-19T08:47:26.285Z,25.40
2018-06-19T08:48:30.385Z,25.40
2018-06-19T08:49:34.516Z,25.50
2018-06-19T08:50:38.980Z,25.50
2018-06-19T08:51:43.111Z,25.40
2018-06-19T08:52:55.666Z,25.50
2018-06-19T08:53:59.983Z,25.50
2018-06-19T08:55:04.365Z,25.50
2018-06-19T08:56:08.762Z,25.50
2018-06-19T08:58:16.685Z,25.50
2018-06-19T08:59:20.783Z,25.50
2018-06-19T09:00:24.944Z,25.50
2018-06-19T09:01:29.108Z,25.50
2018-06-19T09:02:33.204Z,25.50
2018-06-19T09:03:37.413Z,25.50
2018-06-19T09:05:45.317Z,25.50
2018-06-19T09:06:49.823Z,25.50
2018-06-19T09:07:54.121Z,25.50
2018-06-19T09:08:58.297Z,25.50
2018-06-19T09:10:02.440Z,25.50
2018-06-19T09:11:06.842Z,25.50
2018-06-19T09:12:12.942Z,25.50
2018-06-19T09:13:17.125Z,25.60
2018-06-19T09:14:21.208Z,25.60
2018-06-19T09:15:25.325Z,25.60
2018-06-19T09:16:29.829Z,25.60
2018-06-19T09:17:34.025Z,25.70
2018-06-19T09:18:38.248Z,25.70
2018-06-19T09:19:43.391Z,25.70
2018-06-19T09:20:47.495Z,25.80
2018-06-19T09:21:52.150Z,25.80
2018-06-19T09:22:56.620Z,25.80
2018-06-19T09:24:02.556Z,25.80
2018-06-19T09:25:06.770Z,25.90
2018-06-19T09:26:12.539Z,25.90
2018-06-19T09:27:17.361Z,25.90
2018-06-19T09:28:21.550Z,25.90
2018-06-19T09:29:25.691Z,25.90
2018-06-19T09:30:31.709Z,25.90
2018-06-19T09:31:36.116Z,26.00
2018-06-19T09:32:40.602Z,26.00
2018-06-19T09:33:44.717Z,26.00
2018-06-19T09:34:48.847Z,26.10
2018-06-19T09:35:54.210Z,26.10
2018-06-19T09:36:58.681Z,26.20
2018-06-19T09:38:02.828Z,26.20
2018-06-19T09:39:09.182Z,26.30
2018-06-19T09:40:13.896Z,26.30
2018-06-19T09:42:22.378Z,26.40
2018-06-19T09:43:26.874Z,26.40
2018-06-19T09:44:31.008Z,26.40
2018-06-19T09:45:35.267Z,26.50
2018-06-19T09:46:41.182Z,26.50
2018-06-19T09:47:48.486Z,26.60
2018-06-19T09:48:52.567Z,26.60
2018-06-19T09:49:56.882Z,26.70
2018-06-19T09:51:01.081Z,26.70
2018-06-19T09:52:05.383Z,26.80
2018-06-19T09:53:09.670Z,26.90
2018-06-19T09:54:13.837Z,26.90
2018-06-19T09:55:18.020Z,26.90
2018-06-19T09:56:22.165Z,26.90
2018-06-19T09:57:26.352Z,26.90
2018-06-19T09:58:30.536Z,26.90
2018-06-19T09:59:34.853Z,27.00
2018-06-19T10:00:38.966Z,26.90
2018-06-19T10:01:43.129Z,26.90
2018-06-19T10:02:47.404Z,26.90
2018-06-19T10:03:51.570Z,26.90
2018-06-19T10:04:55.852Z,26.90
2018-06-19T10:07:03.686Z,27.00
2018-06-19T10:08:07.831Z,27.00
2018-06-19T10:09:11.952Z,27.00
2018-06-19T10:10:16.138Z,27.00
2018-06-19T10:11:20.357Z,27.00
2018-06-19T10:12:24.636Z,27.10
2018-06-19T10:13:29.614Z,27.10
2018-06-19T10:14:33.813Z,27.10
2018-06-19T10:15:38.027Z,27.20
2018-06-19T10:16:42.304Z,27.30
2018-06-19T10:17:46.601Z,27.40
2018-06-19T10:18:50.847Z,27.50
2018-06-19T10:19:55.484Z,27.50
2018-06-19T10:21:00.932Z,27.60
2018-06-19T10:22:05.206Z,27.70
2018-06-19T10:23:09.409Z,27.80
2018-06-19T10:24:13.683Z,27.90
2018-06-19T10:25:17.884Z,28.00
2018-06-19T10:27:25.761Z,28.10
2018-06-19T10:28:29.871Z,28.20
2018-06-19T10:29:34.295Z,28.20
2018-06-19T10:30:38.582Z,28.30
2018-06-19T10:31:42.704Z,28.30
2018-06-19T10:32:46.827Z,28.40
2018-06-19T10:33:51.033Z,28.40
2018-06-19T10:34:55.197Z,28.40
2018-06-19T10:35:59.332Z,28.40
2018-06-19T10:37:03.499Z,28.40
2018-06-19T10:38:07.659Z,28.40
2018-06-19T10:40:16.158Z,28.40
2018-06-19T10:41:20.261Z,28.40
2018-06-19T10:42:24.447Z,28.40
2018-06-19T10:43:28.561Z,28.40
2018-06-19T10:44:32.595Z,28.40
2018-06-19T10:45:36.838Z,28.40
2018-06-19T10:46:40.927Z,28.40
2018-06-19T10:47:45.027Z,28.40
2018-06-19T10:48:49.138Z,28.50
2018-06-19T10:49:53.291Z,28.50
2018-06-19T10:50:57.413Z,28.50
2018-06-19T10:52:01.628Z,28.60
2018-06-19T10:53:05.804Z,28.60
2018-06-19T10:54:09.959Z,28.60
2018-06-19T10:55:14.268Z,28.70
2018-06-19T10:56:18.546Z,28.70
2018-06-19T10:57:22.740Z,28.80
2018-06-19T10:58:26.999Z,28.80
2018-06-19T10:59:31.123Z,28.90
2018-06-19T11:00:35.280Z,28.90
2018-06-19T11:01:39.417Z,29.00
2018-06-19T11:02:43.598Z,29.00
2018-06-19T11:03:47.716Z,29.10
2018-06-19T11:04:51.838Z,29.10
2018-06-19T11:05:56.107Z,29.10
2018-06-19T11:07:00.277Z,29.10
2018-06-19T11:08:04.485Z,29.20
2018-06-19T11:09:10.287Z,29.10
2018-06-19T11:10:14.451Z,29.20
2018-06-19T11:11:18.548Z,29.10
2018-06-19T11:12:22.744Z,29.10
2018-06-19T11:13:26.922Z,29.10
2018-06-19T11:14:31.121Z,29.10
2018-06-19T11:15:35.389Z,29.00
2018-06-19T11:16:39.624Z,29.00
2018-06-19T11:17:43.773Z,29.00
2018-06-19T11:18:47.987Z,28.90
2018-06-19T11:19:52.182Z,28.90
2018-06-19T11:20:56.331Z,28.80
2018-06-19T11:22:00.485Z,28.80
2018-06-19T11:23:04.671Z,28.70
2018-06-19T11:24:08.819Z,28.70
2018-06-19T11:25:13.077Z,28.60
2018-06-19T11:26:17.289Z,28.60
2018-06-19T11:27:21.524Z,28.50
2018-06-19T11:28:25.704Z,28.50
2018-06-19T11:29:31.251Z,28.40
2018-06-19T11:30:35.346Z,28.40
2018-06-19T11:31:39.472Z,28.40
2018-06-19T11:32:43.609Z,28.30
2018-06-19T11:33:47.840Z,28.30
2018-06-19T11:34:52.043Z,28.20
2018-06-19T11:35:56.214Z,28.20
2018-06-19T11:37:00.396Z,28.10
2018-06-19T11:38:04.532Z,28.10
2018-06-19T11:39:11.359Z,28.10
2018-06-19T11:40:15.585Z,28.10
2018-06-19T11:42:23.626Z,28.10
2018-06-19T11:43:27.709Z,28.20
2018-06-19T11:44:31.841Z,28.20
2018-06-19T11:45:36.096Z,28.30
2018-06-19T11:46:40.267Z,28.30
2018-06-19T11:47:44.835Z,28.40
2018-06-19T11:48:49.101Z,28.40
2018-06-19T11:49:53.266Z,28.50
2018-06-19T11:50:57.434Z,28.50
2018-06-19T11:52:01.635Z,28.50
2018-06-19T11:53:05.895Z,28.60
2018-06-19T11:54:10.078Z,28.60
2018-06-19T11:55:14.432Z,28.60
2018-06-19T11:56:18.594Z,28.60
2018-06-19T11:57:22.800Z,28.60
2018-06-19T11:58:26.939Z,28.70
2018-06-19T11:59:31.163Z,28.70
2018-06-19T12:00:35.292Z,28.60
2018-06-19T12:01:39.349Z,28.60
2018-06-19T12:02:43.517Z,28.60
2018-06-19T12:03:48.246Z,28.60
2018-06-19T12:04:52.382Z,28.50
2018-06-19T12:05:56.510Z,28.50
2018-06-19T12:07:00.664Z,28.50
2018-06-19T12:08:05.073Z,28.40
2018-06-19T12:09:09.979Z,28.40
2018-06-19T12:10:14.054Z,28.40
2018-06-19T12:11:18.208Z,28.40
2018-06-19T12:12:22.324Z,28.40
2018-06-19T12:13:26.473Z,28.40
2018-06-19T12:14:30.735Z,28.40
2018-06-19T12:15:35.074Z,28.40
2018-06-19T12:16:39.387Z,28.50
2018-06-19T12:17:43.498Z,28.50
2018-06-19T12:18:47.638Z,28.50
2018-06-19T12:19:51.748Z,28.50
2018-06-19T12:20:55.962Z,28.60
2018-06-19T12:22:00.108Z,28.60
2018-06-19T12:23:04.363Z,28.70
2018-06-19T12:24:08.601Z,28.80
2018-06-19T12:25:12.776Z,28.80
2018-06-19T12:26:17.037Z,28.90
2018-06-19T12:27:21.203Z,28.90
2018-06-19T12:28:25.295Z,28.90
2018-06-19T12:29:29.549Z,29.00
2018-06-19T12:30:33.655Z,29.00
2018-06-19T12:31:37.812Z,29.00
2018-06-19T12:32:41.901Z,29.00
2018-06-19T12:33:45.998Z,29.10
2018-06-19T12:34:50.048Z,29.10
2018-06-19T12:35:54.398Z,29.10
2018-06-19T12:36:58.467Z,29.10
2018-06-19T12:38:02.603Z,29.10
2018-06-19T12:39:08.668Z,29.10
2018-06-19T12:40:12.812Z,29.20
2018-06-19T12:41:17.010Z,29.20
2018-06-19T12:42:21.211Z,29.20
2018-06-19T12:43:25.320Z,29.30
2018-06-19T12:44:29.482Z,29.30
2018-06-19T12:45:33.682Z,29.40
2018-06-19T12:46:38.313Z,29.50
2018-06-19T12:47:42.415Z,29.50
2018-06-19T12:48:46.539Z,29.70
2018-06-19T12:50:30.025Z,29.80
2018-06-19T12:51:45.528Z,30.00
2018-06-19T12:52:59.828Z,30.20
2018-06-19T12:54:48.031Z,30.40
2018-06-19T12:56:03.477Z,30.60
2018-06-19T12:57:07.575Z,30.80
2018-06-19T12:59:15.395Z,31.20
2018-06-19T13:00:19.640Z,31.30
2018-06-19T13:01:24.737Z,31.40
2018-06-19T13:02:28.877Z,31.60
2018-06-19T13:03:44.149Z,31.70
2018-06-19T13:04:59.565Z,31.70
2018-06-19T13:06:14.967Z,31.90
2018-06-19T13:07:19.041Z,31.90
2018-06-19T13:08:23.177Z,32.00
2018-06-19T13:09:27.283Z,32.10
2018-06-19T13:10:31.515Z,32.20
2018-06-19T13:11:36.161Z,32.30
2018-06-19T13:13:21.595Z,32.40
2018-06-19T13:14:36.984Z,32.60
2018-06-19T13:15:41.147Z,32.80
2018-06-19T13:16:56.645Z,32.90
2018-06-19T13:19:11.043Z,33.00
2018-06-19T13:20:26.554Z,33.10
2018-06-19T13:21:30.644Z,33.20
2018-06-19T13:22:34.773Z,33.20
2018-06-19T13:24:42.739Z,33.40
2018-06-19T13:25:46.923Z,33.40
2018-06-19T13:26:51.136Z,33.40
2018-06-19T13:27:55.581Z,33.50
2018-06-19T13:29:37.333Z,33.50
2018-06-19T13:30:52.738Z,33.50
2018-06-19T13:31:56.970Z,33.50
2018-06-19T13:33:01.121Z,33.50
2018-06-19T13:34:05.215Z,33.40
2018-06-19T13:35:09.376Z,33.40
2018-06-19T13:36:13.654Z,33.40
2018-06-19T13:37:17.895Z,33.30
2018-06-19T13:39:25.841Z,33.20
2018-06-19T13:41:08.239Z,33.10
2018-06-19T13:42:23.987Z,33.00
2018-06-19T13:43:39.674Z,33.00
2018-06-19T13:44:55.897Z,33.00
2018-06-19T13:46:00.042Z,32.90
2018-06-19T13:47:04.286Z,32.90
2018-06-19T13:48:08.414Z,32.90
2018-06-19T13:49:12.563Z,32.90
2018-06-19T13:50:16.822Z,32.90
2018-06-19T13:51:20.962Z,32.90
2018-06-19T13:52:25.157Z,32.80
2018-06-19T13:53:29.276Z,32.80
2018-06-19T13:56:13.844Z,32.80
2018-06-19T13:57:32.609Z,32.90
2018-06-19T13:58:37.534Z,32.90
2018-06-19T13:59:41.677Z,33.00
2018-06-19T14:00:45.775Z,33.00
2018-06-19T14:01:50.160Z,33.10
2018-06-19T14:02:54.161Z,33.10
2018-06-19T14:03:58.268Z,33.20
2018-06-19T14:05:03.052Z,33.30
2018-06-19T14:06:08.040Z,33.30
2018-06-19T14:07:12.234Z,33.40
2018-06-19T14:08:33.342Z,33.40
2018-06-19T14:09:49.724Z,33.50
2018-06-19T14:11:05.318Z,33.60
2018-06-19T14:12:22.829Z,33.80
2018-06-19T14:13:27.021Z,33.90
2018-06-19T14:14:31.158Z,33.90
2018-06-19T14:15:41.429Z,34.00
2018-06-19T14:17:49.273Z,34.10
2018-06-19T14:18:53.538Z,34.10
2018-06-19T14:19:57.649Z,34.10
2018-06-19T14:21:01.825Z,34.10
2018-06-19T14:22:06.038Z,34.10
2018-06-19T14:23:10.399Z,34.00
2018-06-19T14:24:14.509Z,34.10
2018-06-19T14:26:22.987Z,33.90